createdAt,value
2019-05-23T00:01:45.503Z,12.33
2019-05-23T00:04:21.071Z,12.47
2019-05-23T00:06:52.190Z,12.27
2019-05-23T00:09:23.898Z,12.27
2019-05-23T00:12:14.057Z,13.40
2019-05-23T00:14:51.969Z,12.57
2019-05-23T00:17:24.546Z,13.03
2019-05-23T00:19:56.360Z,12.27
2019-05-23T00:22:29.306Z,12.53
2019-05-23T00:25:00.911Z,12.53
2019-05-23T00:27:32.210Z,12.10
2019-05-23T00:30:04.478Z,12.50
2019-05-23T00:32:42.990Z,13.13
2019-05-23T00:35:15.142Z,13.57
2019-05-23T00:37:47.570Z,12.43
2019-05-23T00:40:19.816Z,13.00
2019-05-23T00:42:51.904Z,12.00
2019-05-23T00:45:24.216Z,13.47
2019-05-23T00:47:55.235Z,12.43
2019-05-23T00:50:26.546Z,13.30
2019-05-23T00:52:58.223Z,12.27
2019-05-23T00:55:29.049Z,13.30
2019-05-23T00:58:00.516Z,12.80
2019-05-23T01:00:32.628Z,12.60
2019-05-23T01:03:05.429Z,13.17
2019-05-23T01:05:36.883Z,12.43
2019-05-23T01:08:07.482Z,11.93
2019-05-23T01:10:39.750Z,12.97
2019-05-23T01:13:10.655Z,12.40
2019-05-23T01:15:41.969Z,12.87
2019-05-23T01:18:13.404Z,12.67
2019-05-23T01:21:01.142Z,13.80
2019-05-23T01:23:33.388Z,13.97
2019-05-23T01:26:04.702Z,14.03
2019-05-23T01:28:35.325Z,14.33
2019-05-23T01:31:26.375Z,13.67
2019-05-23T01:33:58.663Z,14.03
2019-05-23T01:36:29.956Z,15.13
2019-05-23T01:39:01.761Z,14.80
2019-05-23T01:41:32.357Z,13.87
2019-05-23T01:44:04.186Z,14.23
2019-05-23T01:46:38.518Z,15.07
2019-05-23T01:49:10.073Z,14.87
2019-05-23T01:51:40.762Z,15.20
2019-05-23T01:54:12.054Z,15.40
2019-05-23T01:56:44.712Z,14.90
2019-05-23T01:59:16.814Z,15.07
2019-05-23T02:01:47.506Z,16.17
2019-05-23T02:04:21.449Z,16.77
2019-05-23T02:06:52.251Z,17.17
2019-05-23T02:09:23.979Z,17.67
2019-05-23T02:11:56.675Z,17.73
2019-05-23T02:14:28.149Z,18.93
2019-05-23T02:17:01.191Z,18.07
2019-05-23T02:19:32.099Z,18.40
2019-05-23T02:22:04.502Z,17.83
2019-05-23T02:24:35.981Z,16.60
2019-05-23T02:27:10.055Z,16.20
2019-05-23T02:29:43.100Z,16.90
2019-05-23T02:32:16.251Z,15.27
2019-05-23T02:34:47.573Z,14.20
2019-05-23T02:37:20.184Z,15.00
2019-05-23T02:40:03.809Z,13.90
2019-05-23T02:42:39.457Z,13.77
2019-05-23T02:45:13.015Z,14.30
2019-05-23T02:47:52.223Z,13.70
2019-05-23T02:50:26.555Z,13.93
2019-05-23T02:52:59.090Z,14.43
2019-05-23T02:55:35.263Z,15.40
2019-05-23T02:58:20.907Z,15.97
2019-05-23T03:01:10.999Z,16.03
2019-05-23T03:03:45.768Z,17.67
2019-05-23T03:06:19.716Z,18.63
2019-05-23T03:08:52.461Z,17.23
2019-05-23T03:11:33.633Z,17.97
2019-05-23T03:14:05.922Z,16.33
2019-05-23T03:16:39.549Z,16.27
2019-05-23T03:19:23.681Z,15.90
2019-05-23T03:21:58.433Z,16.07
2019-05-23T03:24:29.826Z,15.83
2019-05-23T03:27:04.334Z,17.60
2019-05-23T03:29:36.034Z,14.73
2019-05-23T03:32:23.223Z,14.07
2019-05-23T03:34:56.296Z,14.53
2019-05-23T03:37:27.911Z,14.20
2019-05-23T03:40:00.446Z,14.70
2019-05-23T03:42:31.044Z,15.40
2019-05-23T03:45:03.542Z,15.30
2019-05-23T03:47:37.863Z,15.30
2019-05-23T03:50:12.410Z,15.63
2019-05-23T03:52:44.248Z,14.53
2019-05-23T03:55:16.464Z,16.50
2019-05-23T03:57:49.314Z,15.40
2019-05-23T04:00:21.947Z,15.87
2019-05-23T04:02:52.554Z,15.90
2019-05-23T04:05:24.580Z,14.97
2019-05-23T04:07:55.393Z,14.90
2019-05-23T04:10:26.925Z,14.17
2019-05-23T04:12:58.628Z,11.73
2019-05-23T04:15:29.601Z,12.10
2019-05-23T04:18:00.307Z,11.43
2019-05-23T04:20:31.858Z,10.90
2019-05-23T04:23:02.760Z,10.63
2019-05-23T04:25:34.786Z,10.40
2019-05-23T04:28:06.119Z,11.33
2019-05-23T04:30:36.947Z,9.40
2019-05-23T04:33:09.379Z,9.43
2019-05-23T04:35:40.386Z,9.10
2019-05-23T04:38:11.326Z,9.57
2019-05-23T04:40:43.218Z,10.00
2019-05-23T04:43:13.814Z,9.20
2019-05-23T04:45:48.901Z,8.63
2019-05-23T04:48:20.804Z,8.53
2019-05-23T04:50:59.710Z,8.67
2019-05-23T04:53:29.760Z,9.33
2019-05-23T04:56:02.192Z,10.40
2019-05-23T04:58:33.890Z,9.90
2019-05-23T05:01:06.317Z,9.23
2019-05-23T05:03:41.469Z,9.93
2019-05-23T05:06:15.141Z,7.67
2019-05-23T05:08:46.549Z,8.10
2019-05-23T05:11:17.460Z,8.83
2019-05-23T05:13:50.289Z,9.20
2019-05-23T05:16:22.764Z,7.40
2019-05-23T05:18:56.007Z,14.63
2019-05-23T05:21:29.121Z,9.23
2019-05-23T05:24:00.718Z,9.27
2019-05-23T05:26:33.618Z,8.60
2019-05-23T05:29:05.294Z,7.70
2019-05-23T05:31:36.941Z,6.33
2019-05-23T05:34:09.482Z,6.63
2019-05-23T05:36:43.765Z,7.07
2019-05-23T05:39:22.370Z,6.83
2019-05-23T05:41:54.699Z,6.23
2019-05-23T05:44:26.236Z,6.60
2019-05-23T05:46:57.163Z,6.10
2019-05-23T05:49:29.930Z,6.80
2019-05-23T05:52:02.223Z,7.10
2019-05-23T05:54:32.843Z,7.53
2019-05-23T05:57:10.239Z,7.13
2019-05-23T05:59:37.166Z,8.90
2019-05-23T06:02:11.595Z,8.20
2019-05-23T06:04:43.501Z,6.10
2019-05-23T06:07:16.126Z,5.30
2019-05-23T06:09:49.782Z,5.97
2019-05-23T06:12:22.553Z,6.57
2019-05-23T06:14:53.653Z,6.07
2019-05-23T06:17:24.394Z,6.13
2019-05-23T06:19:55.494Z,5.37
2019-05-23T06:22:28.455Z,5.67
2019-05-23T06:25:02.561Z,5.93
2019-05-23T06:27:34.781Z,7.40
2019-05-23T06:30:08.610Z,8.20
2019-05-23T06:32:39.578Z,8.03
2019-05-23T06:35:14.016Z,7.60
2019-05-23T06:37:46.045Z,7.43
2019-05-23T06:40:16.640Z,6.87
2019-05-23T06:42:50.920Z,7.40
2019-05-23T06:45:21.858Z,7.30
2019-05-23T06:47:52.862Z,6.73
2019-05-23T06:50:24.101Z,5.60
2019-05-23T06:52:54.721Z,5.73
2019-05-23T06:55:25.369Z,5.70
2019-05-23T06:57:55.943Z,5.43
2019-05-23T07:00:27.502Z,6.33
2019-05-23T07:02:58.340Z,5.90
2019-05-23T07:05:32.352Z,5.43
2019-05-23T07:08:05.429Z,4.97
2019-05-23T07:10:42.803Z,4.50
2019-05-23T07:13:13.982Z,4.73
2019-05-23T07:15:45.339Z,4.97
2019-05-23T07:18:16.617Z,4.80
2019-05-23T07:20:47.359Z,4.97
2019-05-23T07:23:18.966Z,4.50
2019-05-23T07:25:50.277Z,4.60
2019-05-23T07:28:21.043Z,4.27
2019-05-23T07:30:52.110Z,5.13
2019-05-23T07:33:23.987Z,4.70
2019-05-23T07:35:55.086Z,4.70
2019-05-23T07:38:25.757Z,4.00
2019-05-23T07:40:57.093Z,4.00
2019-05-23T07:43:28.110Z,3.60
2019-05-23T07:45:59.369Z,4.30
2019-05-23T07:48:31.562Z,4.27
2019-05-23T07:51:02.377Z,5.10
2019-05-23T07:53:44.172Z,4.77
2019-05-23T07:56:19.765Z,5.20
2019-05-23T07:58:50.363Z,6.53
2019-05-23T08:01:28.661Z,5.50
2019-05-23T08:04:00.125Z,4.40
2019-05-23T08:06:31.499Z,4.20
2019-05-23T08:09:02.188Z,4.00
2019-05-23T08:11:33.022Z,3.70
2019-05-23T08:14:03.982Z,4.07
2019-05-23T08:16:34.753Z,4.00
2019-05-23T08:19:05.745Z,4.13
2019-05-23T08:21:39.005Z,4.20
2019-05-23T08:24:11.390Z,3.93
2019-05-23T08:26:43.180Z,4.43
2019-05-23T08:29:26.646Z,4.27
2019-05-23T08:31:51.950Z,4.37
2019-05-23T08:34:39.990Z,4.47
2019-05-23T08:36:58.267Z,5.13
2019-05-23T08:39:30.916Z,5.07
2019-05-23T08:42:03.588Z,5.60
2019-05-23T08:44:34.219Z,5.27
2019-05-23T08:47:06.682Z,5.60
2019-05-23T08:49:37.619Z,5.30
2019-05-23T08:52:09.108Z,4.10
2019-05-23T08:54:39.903Z,3.93
2019-05-23T08:57:11.126Z,2.77
2019-05-23T08:59:44.071Z,3.17
2019-05-23T09:02:14.834Z,3.77
2019-05-23T09:05:03.365Z,3.90
2019-05-23T09:07:19.094Z,3.67
2019-05-23T09:09:50.613Z,3.90
2019-05-23T09:12:21.801Z,3.13
2019-05-23T09:14:53.010Z,3.07
2019-05-23T09:17:23.582Z,3.50
2019-05-23T09:19:55.300Z,4.10
2019-05-23T09:22:27.903Z,3.47
2019-05-23T09:24:58.614Z,3.10
2019-05-23T09:27:29.310Z,2.77
2019-05-23T09:30:02.146Z,2.50
2019-05-23T09:32:32.777Z,2.93
2019-05-23T09:35:19.725Z,3.10
2019-05-23T09:37:37.217Z,2.73
2019-05-23T09:40:08.222Z,3.00
2019-05-23T09:42:38.815Z,3.00
2019-05-23T09:45:09.750Z,3.50
2019-05-23T09:47:40.757Z,3.70
2019-05-23T09:50:16.021Z,3.50
2019-05-23T09:52:47.127Z,3.67
2019-05-23T09:55:19.029Z,4.20
2019-05-23T09:57:49.594Z,3.70
2019-05-23T10:00:23.516Z,3.70
2019-05-23T10:02:54.206Z,3.30
2019-05-23T10:05:41.959Z,3.83
2019-05-23T10:07:57.302Z,3.70
2019-05-23T10:10:30.106Z,4.27
2019-05-23T10:13:00.659Z,4.00
2019-05-23T10:15:40.554Z,3.70
2019-05-23T10:18:22.383Z,7.37
2019-05-23T10:20:53.169Z,3.93
2019-05-23T10:23:23.768Z,3.77
2019-05-23T10:25:54.367Z,3.70
2019-05-23T10:28:24.961Z,4.50
2019-05-23T10:30:55.565Z,3.50
2019-05-23T10:33:26.180Z,3.77
2019-05-23T10:36:00.734Z,3.70
2019-05-23T10:38:29.604Z,4.07
2019-05-23T10:41:00.761Z,3.73
2019-05-23T10:43:31.441Z,4.40
2019-05-23T10:46:02.154Z,4.77
2019-05-23T10:51:21.688Z,4.37
2019-05-23T10:53:52.507Z,5.67
2019-05-23T10:56:23.177Z,4.70
2019-05-23T10:58:53.726Z,5.30
2019-05-23T11:01:24.852Z,6.07
2019-05-23T11:03:55.577Z,6.20
2019-05-23T11:06:26.925Z,6.27
2019-05-23T11:08:57.749Z,7.77
2019-05-23T11:11:28.598Z,8.10
2019-05-23T11:13:59.659Z,7.03
2019-05-23T11:16:30.751Z,7.13
2019-05-23T11:19:01.826Z,6.60
2019-05-23T11:21:33.251Z,6.83
2019-05-23T11:24:06.135Z,10.70
2019-05-23T11:26:38.720Z,13.83
2019-05-23T11:29:09.736Z,13.07
2019-05-23T11:31:40.610Z,13.80
2019-05-23T11:34:11.422Z,9.13
2019-05-23T11:36:42.605Z,8.17
2019-05-23T11:39:15.554Z,7.10
2019-05-23T11:41:47.112Z,6.20
2019-05-23T11:44:18.150Z,5.87
2019-05-23T11:46:49.963Z,5.73
2019-05-23T11:49:22.151Z,5.70
2019-05-23T11:51:52.908Z,5.70
2019-05-23T11:54:24.657Z,6.87
2019-05-23T11:56:56.113Z,7.00
2019-05-23T11:59:26.751Z,7.00
2019-05-23T12:02:13.144Z,7.00
2019-05-23T12:04:44.803Z,6.43
2019-05-23T12:07:19.959Z,6.97
2019-05-23T12:09:50.798Z,7.20
2019-05-23T12:12:22.021Z,6.87
2019-05-23T12:14:53.916Z,7.40
2019-05-23T12:17:26.864Z,7.13
2019-05-23T12:19:58.267Z,7.30
2019-05-23T12:22:29.613Z,6.67
2019-05-23T12:25:19.963Z,7.83
2019-05-23T12:27:34.207Z,7.57
2019-05-23T12:30:12.309Z,6.60
2019-05-23T12:32:43.867Z,6.70
2019-05-23T12:35:16.544Z,6.57
2019-05-23T12:37:48.204Z,6.50
2019-05-23T12:40:22.623Z,7.03
2019-05-23T12:42:53.592Z,8.67
2019-05-23T12:45:24.493Z,7.73
2019-05-23T12:47:57.305Z,7.03
2019-05-23T12:50:53.749Z,7.53
2019-05-23T12:53:23.145Z,7.67
2019-05-23T12:55:53.860Z,7.23
2019-05-23T12:58:25.716Z,7.37
2019-05-23T13:01:04.030Z,7.43
2019-05-23T13:03:35.480Z,7.00
2019-05-23T13:06:06.937Z,7.23
2019-05-23T13:08:38.687Z,7.17
2019-05-23T13:11:09.934Z,7.80
2019-05-23T13:13:40.667Z,8.57
2019-05-23T13:16:12.525Z,8.93
2019-05-23T13:18:43.373Z,8.20
2019-05-23T13:21:15.029Z,8.87
2019-05-23T13:23:46.173Z,8.20
2019-05-23T13:26:17.208Z,8.93
2019-05-23T13:28:48.035Z,9.30
2019-05-23T13:31:19.185Z,8.33
2019-05-23T13:33:50.017Z,9.30
2019-05-23T13:36:20.851Z,8.70
2019-05-23T13:38:52.214Z,10.20
2019-05-23T13:41:23.654Z,9.63
2019-05-23T13:43:54.588Z,9.27
2019-05-23T13:46:25.730Z,8.80
2019-05-23T13:48:56.984Z,10.10
2019-05-23T13:51:28.037Z,9.60
2019-05-23T13:53:59.579Z,9.43
2019-05-23T13:56:30.726Z,9.97
2019-05-23T13:59:03.239Z,12.17
2019-05-23T14:01:37.107Z,12.43
2019-05-23T14:04:09.583Z,13.07
2019-05-23T14:06:40.532Z,12.90
2019-05-23T14:09:11.777Z,13.07
2019-05-23T14:11:43.017Z,12.87
2019-05-23T14:14:14.156Z,14.00
2019-05-23T14:17:03.831Z,16.90
2019-05-23T14:19:35.000Z,14.83
2019-05-23T14:22:06.422Z,11.80
2019-05-23T14:24:38.002Z,12.97
2019-05-23T14:27:30.937Z,12.83
2019-05-23T14:30:11.069Z,13.27
2019-05-23T14:32:41.824Z,12.07
2019-05-23T14:35:15.490Z,16.87
2019-05-23T14:37:48.629Z,12.97
2019-05-23T14:40:21.808Z,12.40
2019-05-23T14:43:08.046Z,12.33
2019-05-23T14:45:46.056Z,11.50
2019-05-23T14:48:22.579Z,11.17
2019-05-23T14:50:56.391Z,14.07
2019-05-23T14:53:33.050Z,12.27
2019-05-23T14:56:05.426Z,12.23
2019-05-23T14:58:37.168Z,12.03
2019-05-23T15:01:10.167Z,13.67
2019-05-23T15:03:42.162Z,12.97
2019-05-23T15:06:15.934Z,13.43
2019-05-23T15:08:51.631Z,15.00
2019-05-23T15:11:21.005Z,16.03
2019-05-23T15:13:52.898Z,14.70
2019-05-23T15:16:24.605Z,17.00
2019-05-23T15:18:56.743Z,15.40
2019-05-23T15:21:28.382Z,14.93
2019-05-23T15:23:59.983Z,14.73
2019-05-23T15:26:32.492Z,15.47
2019-05-23T15:29:05.050Z,16.53
2019-05-23T15:31:38.229Z,16.30
2019-05-23T15:34:10.703Z,16.57
2019-05-23T15:36:43.395Z,15.30
2019-05-23T15:39:15.467Z,14.63
2019-05-23T15:41:49.672Z,13.80
2019-05-23T15:44:26.516Z,12.93
2019-05-23T15:46:54.852Z,12.47
2019-05-23T15:49:26.775Z,12.47
2019-05-23T15:52:09.691Z,11.63
2019-05-23T15:54:49.098Z,9.93
2019-05-23T15:57:24.887Z,12.00
2019-05-23T15:59:58.591Z,12.80
2019-05-23T16:02:31.976Z,19.67
2019-05-23T16:05:05.591Z,21.50
2019-05-23T16:07:37.144Z,20.03
2019-05-23T16:10:10.459Z,13.07
2019-05-23T16:12:42.508Z,13.50
2019-05-23T16:15:14.262Z,11.50
2019-05-23T16:17:47.965Z,9.53
2019-05-23T16:20:27.056Z,10.90
2019-05-23T16:23:01.300Z,12.13
2019-05-23T16:25:33.418Z,10.30
2019-05-23T16:28:06.846Z,8.90
2019-05-23T16:30:40.368Z,8.47
2019-05-23T16:33:12.107Z,8.50
2019-05-23T16:35:47.669Z,10.80
2019-05-23T16:38:19.219Z,10.20
2019-05-23T16:40:52.653Z,9.20
2019-05-23T16:43:24.430Z,10.20
2019-05-23T16:46:10.537Z,10.20
2019-05-23T16:48:43.564Z,10.27
2019-05-23T16:51:15.218Z,10.67
2019-05-23T16:53:47.172Z,10.90
2019-05-23T16:56:23.107Z,10.37
2019-05-23T16:59:13.120Z,11.10
2019-05-23T17:01:55.971Z,10.60
2019-05-23T17:04:24.450Z,14.33
2019-05-23T17:07:12.961Z,13.63
2019-05-23T17:10:06.004Z,13.73
2019-05-23T17:12:30.197Z,14.63
2019-05-23T17:15:19.878Z,14.00
2019-05-23T17:18:10.844Z,14.07
2019-05-23T17:21:02.110Z,14.83
2019-05-23T17:23:50.656Z,14.77
2019-05-23T17:26:24.299Z,14.83
2019-05-23T17:29:02.154Z,23.00
2019-05-23T17:31:35.655Z,17.30
2019-05-23T17:34:16.694Z,17.80
2019-05-23T17:36:51.577Z,18.10
2019-05-23T17:39:24.279Z,16.60
2019-05-23T17:41:58.371Z,17.23
2019-05-23T17:44:30.212Z,19.53
2019-05-23T17:47:02.071Z,18.87
2019-05-23T17:49:36.711Z,19.03
2019-05-23T17:52:11.634Z,19.33
2019-05-23T17:54:44.028Z,18.37
2019-05-23T17:57:16.313Z,20.73
2019-05-23T17:59:48.486Z,20.33
2019-05-23T18:02:21.484Z,20.53
2019-05-23T18:04:52.978Z,21.67
2019-05-23T18:07:25.493Z,22.60
2019-05-23T18:09:58.344Z,21.23
2019-05-23T18:12:31.649Z,22.23
2019-05-23T18:15:04.855Z,22.23
2019-05-23T18:17:38.678Z,25.07
2019-05-23T18:20:12.105Z,25.00
2019-05-23T18:22:44.707Z,26.83
2019-05-23T18:25:18.002Z,33.77
2019-05-23T18:27:50.368Z,31.97
2019-05-23T18:30:34.010Z,27.63
2019-05-23T18:33:07.100Z,23.33
2019-05-23T18:35:41.307Z,23.33
2019-05-23T18:38:13.242Z,22.07
2019-05-23T18:41:01.743Z,21.63
2019-05-23T18:43:18.838Z,22.30
2019-05-23T18:45:52.439Z,20.97
2019-05-23T18:48:25.024Z,21.57
2019-05-23T18:50:59.650Z,24.23
2019-05-23T18:53:34.884Z,22.83
2019-05-23T18:56:08.289Z,21.40
2019-05-23T18:58:40.747Z,19.87
2019-05-23T19:01:14.261Z,20.47
2019-05-23T19:03:50.935Z,21.67
2019-05-23T19:06:26.021Z,21.83
2019-05-23T19:09:03.424Z,20.87
2019-05-23T19:11:41.962Z,21.97
2019-05-23T19:14:15.679Z,23.53
2019-05-23T19:16:47.931Z,21.43
2019-05-23T19:19:20.269Z,22.73
2019-05-23T19:21:52.795Z,21.07
2019-05-23T19:24:24.681Z,21.03
2019-05-23T19:26:57.276Z,21.70
2019-05-23T19:29:30.831Z,21.97
2019-05-23T19:32:07.656Z,22.73
2019-05-23T19:37:38.225Z,19.80
2019-05-23T19:40:24.876Z,18.93
2019-05-23T19:43:11.723Z,18.13
2019-05-23T19:45:54.096Z,16.33
2019-05-23T19:48:37.558Z,14.40
2019-05-23T19:51:21.478Z,16.37
2019-05-23T19:53:53.714Z,12.80
2019-05-23T19:56:28.934Z,11.63
2019-05-23T19:59:13.792Z,11.83
2019-05-23T20:01:57.959Z,14.20
2019-05-23T20:04:40.706Z,16.37
2019-05-23T20:07:15.525Z,17.10
2019-05-23T20:09:51.483Z,19.83
2019-05-23T20:12:29.834Z,19.27
2019-05-23T20:15:03.438Z,19.23
2019-05-23T20:17:39.385Z,16.57
2019-05-23T20:20:14.332Z,15.40
2019-05-23T20:22:49.011Z,14.17
2019-05-23T20:25:26.628Z,14.60
2019-05-23T20:27:59.944Z,13.30
2019-05-23T20:30:46.343Z,13.33
2019-05-23T20:33:20.218Z,12.57
2019-05-23T20:35:53.307Z,11.83
2019-05-23T20:38:25.577Z,11.43
2019-05-23T20:40:58.676Z,11.20
2019-05-23T20:43:30.884Z,11.27
2019-05-23T20:46:03.665Z,10.77
2019-05-23T20:48:37.089Z,10.27
2019-05-23T20:51:10.368Z,10.50
2019-05-23T20:53:42.349Z,10.07
2019-05-23T20:56:14.116Z,10.87
2019-05-23T20:58:46.271Z,10.73
2019-05-23T21:01:22.847Z,11.13
2019-05-23T21:03:55.418Z,10.97
2019-05-23T21:06:27.788Z,10.27
2019-05-23T21:09:01.801Z,10.43
2019-05-23T21:11:34.334Z,11.53
2019-05-23T21:14:06.544Z,10.70
2019-05-23T21:16:41.738Z,10.43
2019-05-23T21:19:14.267Z,9.70
2019-05-23T21:21:47.246Z,10.33
2019-05-23T21:24:18.772Z,10.47
2019-05-23T21:26:50.352Z,10.77
2019-05-23T21:29:22.364Z,10.57
2019-05-23T21:31:55.403Z,10.83
2019-05-23T21:34:29.723Z,10.27
2019-05-23T21:37:02.110Z,10.10
2019-05-23T21:39:34.538Z,11.33
2019-05-23T21:42:06.431Z,11.57
2019-05-23T21:44:38.391Z,11.13
2019-05-23T21:47:10.796Z,11.90
2019-05-23T21:49:42.747Z,11.77
2019-05-23T21:52:15.531Z,11.93
2019-05-23T21:54:47.680Z,12.30
2019-05-23T21:57:19.762Z,11.90
2019-05-23T21:59:51.632Z,11.27
2019-05-23T22:02:25.184Z,10.70
2019-05-23T22:04:58.501Z,10.73
2019-05-23T22:07:30.793Z,10.83
2019-05-23T22:10:02.861Z,10.50
2019-05-23T22:12:35.052Z,10.47
2019-05-23T22:15:07.900Z,9.67
2019-05-23T22:17:41.292Z,9.27
2019-05-23T22:20:13.772Z,8.90
2019-05-23T22:22:45.753Z,8.70
2019-05-23T22:25:20.779Z,8.37
2019-05-23T22:27:52.595Z,8.43
2019-05-23T22:30:24.265Z,8.53
2019-05-23T22:32:56.388Z,8.57
2019-05-23T22:35:29.324Z,9.93
2019-05-23T22:38:01.078Z,9.63
2019-05-23T22:40:33.141Z,9.87
2019-05-23T22:43:20.215Z,9.30
2019-05-23T22:45:39.260Z,10.07
2019-05-23T22:48:10.981Z,9.53
2019-05-23T22:50:43.053Z,9.77
2019-05-23T22:53:14.952Z,9.63
2019-05-23T22:55:48.186Z,11.47
2019-05-23T22:58:19.741Z,11.93
2019-05-23T23:00:51.829Z,13.93
2019-05-23T23:03:23.987Z,13.83
2019-05-23T23:05:57.279Z,11.63
2019-05-23T23:08:30.383Z,11.03
2019-05-23T23:11:02.225Z,10.47
2019-05-23T23:13:38.781Z,10.10
2019-05-23T23:16:09.151Z,10.00
2019-05-23T23:18:41.485Z,10.60
2019-05-23T23:21:13.348Z,11.00
2019-05-23T23:23:45.205Z,10.83
2019-05-23T23:26:17.170Z,11.10
2019-05-23T23:28:50.175Z,11.37
2019-05-23T23:31:22.426Z,10.80
2019-05-23T23:33:55.368Z,11.17
2019-05-23T23:36:28.497Z,11.47
2019-05-23T23:39:00.666Z,11.23
2019-05-23T23:41:32.527Z,11.67
2019-05-23T23:44:05.619Z,10.47
2019-05-23T23:46:56.830Z,11.47
2019-05-23T23:49:46.710Z,11.53
2019-05-23T23:52:37.317Z,11.27
2019-05-23T23:55:28.331Z,11.50
2019-05-23T23:58:01.342Z,11.63
